createdAt,value
2023-01-13T00:02:22.257Z,4.72
2023-01-13T00:05:26.703Z,4.62
2023-01-13T00:08:29.739Z,4.61
2023-01-13T00:11:32.518Z,4.51
2023-01-13T00:14:36.468Z,4.46
2023-01-13T00:17:39.430Z,4.46
2023-01-13T00:20:42.191Z,4.37
2023-01-13T00:23:45.446Z,4.34
2023-01-13T00:26:48.516Z,4.31
2023-01-13T00:29:51.308Z,4.26
2023-01-13T00:32:54.073Z,4.24
2023-01-13T00:36:01.867Z,4.26
2023-01-13T00:39:04.673Z,4.26
2023-01-13T00:42:26.439Z,4.24
2023-01-13T00:45:29.307Z,4.09
2023-01-13T00:48:32.933Z,4.04
2023-01-13T00:51:35.833Z,4.11
2023-01-13T00:54:38.628Z,3.99
2023-01-13T00:57:41.412Z,3.95
2023-01-13T01:00:45.873Z,3.99
2023-01-13T01:03:52.290Z,3.94
2023-01-13T01:06:55.087Z,3.90
2023-01-13T01:09:58.064Z,3.92
2023-01-13T01:13:01.008Z,3.93
2023-01-13T01:16:09.014Z,3.92
2023-01-13T01:19:12.022Z,3.95
2023-01-13T01:22:16.137Z,3.90
2023-01-13T01:25:18.904Z,3.93
2023-01-13T01:28:21.734Z,3.87
2023-01-13T01:31:31.542Z,3.88
2023-01-13T01:34:34.370Z,3.94
2023-01-13T01:37:37.200Z,3.94
2023-01-13T01:40:40.051Z,3.92
2023-01-13T01:44:03.859Z,3.87
2023-01-13T01:47:07.124Z,3.83
2023-01-13T01:50:10.668Z,3.79
2023-01-13T01:53:16.150Z,3.80
2023-01-13T01:56:20.021Z,3.86
2023-01-13T01:59:24.011Z,3.76
2023-01-13T02:02:29.003Z,3.69
2023-01-13T02:05:34.307Z,3.67
2023-01-13T02:08:39.067Z,3.68
2023-01-13T02:12:00.923Z,3.66
2023-01-13T02:15:13.253Z,3.66
2023-01-13T02:18:16.260Z,3.65
2023-01-13T02:22:09.552Z,3.67
2023-01-13T02:25:48.827Z,3.77
2023-01-13T02:29:36.196Z,3.76
2023-01-13T02:32:56.195Z,3.79
2023-01-13T02:36:06.624Z,3.82
2023-01-13T02:39:21.521Z,3.82
2023-01-13T02:42:49.612Z,3.84
2023-01-13T02:46:18.057Z,3.84
2023-01-13T02:49:53.595Z,3.84
2023-01-13T02:53:01.320Z,3.83
2023-01-13T02:56:06.132Z,3.79
2023-01-13T02:59:10.064Z,3.79
2023-01-13T03:02:16.761Z,3.78
2023-01-13T03:05:20.185Z,3.76
2023-01-13T03:08:39.801Z,3.77
2023-01-13T03:12:14.284Z,3.76
2023-01-13T03:15:37.156Z,3.77
2023-01-13T03:19:09.702Z,3.76
2023-01-13T03:22:30.953Z,3.77
2023-01-13T03:25:43.415Z,3.73
2023-01-13T03:28:52.580Z,3.73
2023-01-13T03:32:01.100Z,3.74
2023-01-13T03:35:17.686Z,3.69
2023-01-13T03:38:26.425Z,3.69
2023-01-13T03:41:54.614Z,3.70
2023-01-13T03:45:12.636Z,3.79
2023-01-13T03:48:19.026Z,3.73
2023-01-13T03:51:26.190Z,3.71
2023-01-13T03:54:32.966Z,3.74
2023-01-13T03:57:46.639Z,3.73
2023-01-13T04:01:03.539Z,3.64
2023-01-13T04:04:12.721Z,3.65
2023-01-13T04:07:28.855Z,3.63
2023-01-13T04:10:40.079Z,3.67
2023-01-13T04:13:46.099Z,3.61
2023-01-13T04:16:49.588Z,3.64
2023-01-13T04:19:52.078Z,3.65
2023-01-13T04:22:55.157Z,3.67
2023-01-13T04:25:57.694Z,3.68
2023-01-13T04:29:00.761Z,3.69
2023-01-13T04:32:03.605Z,3.68
2023-01-13T04:35:08.424Z,3.74
2023-01-13T04:38:14.451Z,3.75
2023-01-13T04:41:17.582Z,3.89
2023-01-13T04:44:20.122Z,3.85
2023-01-13T04:47:23.346Z,3.79
2023-01-13T04:50:26.432Z,3.80
2023-01-13T04:53:29.574Z,3.79
2023-01-13T04:56:32.216Z,3.86
2023-01-13T04:59:35.282Z,3.81
2023-01-13T05:02:37.827Z,3.80
2023-01-13T05:05:40.976Z,3.87
2023-01-13T05:08:43.493Z,3.86
2023-01-13T05:12:05.456Z,3.99
2023-01-13T05:15:28.642Z,3.79
2023-01-13T05:18:31.767Z,3.70
2023-01-13T05:21:52.862Z,3.64
2023-01-13T05:25:14.503Z,3.77
2023-01-13T05:28:17.289Z,3.65
2023-01-13T05:31:20.454Z,3.60
2023-01-13T05:34:22.980Z,3.71
2023-01-13T05:37:26.910Z,3.61
2023-01-13T05:40:48.424Z,3.61
2023-01-13T05:43:51.509Z,3.60
2023-01-13T05:46:54.069Z,3.62
2023-01-13T05:49:57.148Z,3.72
2023-01-13T05:52:59.777Z,3.64
2023-01-13T05:56:07.034Z,3.63
2023-01-13T05:59:10.160Z,3.69
2023-01-13T06:02:13.088Z,3.73
2023-01-13T06:05:15.970Z,3.75
2023-01-13T06:08:19.188Z,3.74
2023-01-13T06:11:22.279Z,3.71
2023-01-13T06:14:25.144Z,3.74
2023-01-13T06:17:27.961Z,3.74
2023-01-13T06:20:31.370Z,3.71
2023-01-13T06:23:38.560Z,3.70
2023-01-13T06:26:41.588Z,3.68
2023-01-13T06:29:44.491Z,3.70
2023-01-13T06:32:53.316Z,3.74
2023-01-13T06:36:00.151Z,3.74
2023-01-13T06:39:04.733Z,3.85
2023-01-13T06:42:26.412Z,3.83
2023-01-13T06:45:31.418Z,3.76
2023-01-13T06:48:35.556Z,3.78
2023-01-13T06:51:38.555Z,3.74
2023-01-13T06:54:41.454Z,3.71
2023-01-13T06:57:52.665Z,3.84
2023-01-13T07:01:00.237Z,3.66
2023-01-13T07:04:03.246Z,3.69
2023-01-13T07:07:07.813Z,3.73
2023-01-13T07:10:13.299Z,3.74
2023-01-13T07:13:34.746Z,3.73
2023-01-13T07:16:37.612Z,3.80
2023-01-13T07:19:40.457Z,3.85
2023-01-13T07:22:46.036Z,3.97
2023-01-13T07:25:49.337Z,4.02
2023-01-13T07:28:52.102Z,4.21
2023-01-13T07:31:55.087Z,4.33
2023-01-13T07:34:58.665Z,4.48
2023-01-13T07:38:01.481Z,4.61
2023-01-13T07:41:24.325Z,4.90
2023-01-13T07:44:27.809Z,4.85
2023-01-13T07:47:30.568Z,4.86
2023-01-13T07:50:33.359Z,4.74
2023-01-13T07:53:36.962Z,4.84
2023-01-13T07:56:39.915Z,4.91
2023-01-13T07:59:42.797Z,4.96
2023-01-13T08:02:45.713Z,5.01
2023-01-13T08:05:49.081Z,4.87
2023-01-13T08:08:51.743Z,4.93
2023-01-13T08:12:13.382Z,4.90
2023-01-13T08:15:16.406Z,4.85
2023-01-13T08:18:22.635Z,4.80
2023-01-13T08:21:25.552Z,4.72
2023-01-13T08:24:28.533Z,4.67
2023-01-13T08:27:31.008Z,4.54
2023-01-13T08:30:34.333Z,4.50
2023-01-13T08:33:37.650Z,4.52
2023-01-13T08:36:41.222Z,4.57
2023-01-13T08:39:43.885Z,4.60
2023-01-13T08:42:48.570Z,4.73
2023-01-13T08:45:57.418Z,4.80
2023-01-13T08:49:00.893Z,4.76
2023-01-13T08:52:04.163Z,4.74
2023-01-13T08:55:08.585Z,4.70
2023-01-13T08:58:15.782Z,4.77
2023-01-13T09:01:23.178Z,4.73
2023-01-13T09:04:28.018Z,4.71
2023-01-13T09:07:31.367Z,4.67
2023-01-13T09:10:35.656Z,4.52
2023-01-13T09:13:39.748Z,4.39
2023-01-13T09:16:42.187Z,4.46
2023-01-13T09:19:45.248Z,4.40
2023-01-13T09:22:48.787Z,4.36
2023-01-13T09:25:52.949Z,4.44
2023-01-13T09:28:55.451Z,4.58
2023-01-13T09:31:58.570Z,4.53
2023-01-13T09:35:01.394Z,4.55
2023-01-13T09:38:06.201Z,4.63
2023-01-13T09:41:43.262Z,4.55
2023-01-13T09:45:01.871Z,4.60
2023-01-13T09:48:13.757Z,4.74
2023-01-13T09:51:31.967Z,4.60
2023-01-13T09:55:03.994Z,4.40
2023-01-13T09:58:19.241Z,4.45
2023-01-13T10:01:38.683Z,4.21
2023-01-13T10:04:41.927Z,4.15
2023-01-13T10:07:52.372Z,4.02
2023-01-13T10:10:57.320Z,4.17
2023-01-13T10:14:03.162Z,4.19
2023-01-13T10:17:34.251Z,4.27
2023-01-13T10:20:40.578Z,4.41
2023-01-13T10:23:52.837Z,4.31
2023-01-13T10:27:01.593Z,4.29
2023-01-13T10:30:20.176Z,4.45
2023-01-13T10:33:30.774Z,4.64
2023-01-13T10:36:34.102Z,4.66
2023-01-13T10:39:45.954Z,4.72
2023-01-13T10:42:49.192Z,4.62
2023-01-13T10:46:05.907Z,4.70
2023-01-13T10:49:36.556Z,4.56
2023-01-13T10:52:54.734Z,4.57
2023-01-13T10:56:03.460Z,4.47
2023-01-13T10:59:18.619Z,4.51
2023-01-13T11:02:36.868Z,4.67
2023-01-13T11:05:40.199Z,4.69
2023-01-13T11:08:46.271Z,4.72
2023-01-13T11:11:55.444Z,4.69
2023-01-13T11:15:02.516Z,4.74
2023-01-13T11:18:14.021Z,4.86
2023-01-13T11:21:35.269Z,4.99
2023-01-13T11:24:57.327Z,4.96
2023-01-13T11:28:26.993Z,5.00
2023-01-13T11:31:43.167Z,4.98
2023-01-13T11:34:54.649Z,4.94
2023-01-13T11:38:09.603Z,4.94
2023-01-13T11:41:20.979Z,5.03
2023-01-13T11:44:36.034Z,4.97
2023-01-13T11:47:39.525Z,4.95
2023-01-13T11:51:00.084Z,4.76
2023-01-13T11:54:29.485Z,4.77
2023-01-13T11:57:57.968Z,4.72
2023-01-13T12:01:22.295Z,4.69
2023-01-13T12:04:53.225Z,4.61
2023-01-13T12:08:04.885Z,4.59
2023-01-13T12:11:10.649Z,4.65
2023-01-13T12:14:33.571Z,4.71
2023-01-13T12:17:48.193Z,4.70
2023-01-13T12:21:06.269Z,4.66
2023-01-13T12:24:30.040Z,4.80
2023-01-13T12:27:32.904Z,4.86
2023-01-13T12:30:50.908Z,4.96
2023-01-13T12:34:26.198Z,5.04
2023-01-13T12:37:44.952Z,4.93
2023-01-13T12:41:01.844Z,4.87
2023-01-13T12:44:17.137Z,4.78
2023-01-13T12:47:52.864Z,4.69
2023-01-13T12:51:00.772Z,4.75
2023-01-13T12:54:51.278Z,4.76
2023-01-13T12:58:06.176Z,4.78
2023-01-13T13:01:14.440Z,4.91
2023-01-13T13:04:44.029Z,4.94
2023-01-13T13:08:14.595Z,5.03
2023-01-13T13:11:40.963Z,5.15
2023-01-13T13:14:44.287Z,5.29
2023-01-13T13:18:19.647Z,5.31
2023-01-13T13:21:22.509Z,5.41
2023-01-13T13:24:26.558Z,5.41
2023-01-13T13:27:41.202Z,5.46
2023-01-13T13:30:55.884Z,5.48
2023-01-13T13:34:19.291Z,5.47
2023-01-13T13:38:19.738Z,5.49
2023-01-13T13:41:45.003Z,5.49
2023-01-13T13:45:08.116Z,5.50
2023-01-13T13:48:25.587Z,5.59
2023-01-13T13:51:38.405Z,5.54
2023-01-13T13:54:44.024Z,5.51
2023-01-13T13:57:49.885Z,5.57
2023-01-13T14:00:54.431Z,5.65
2023-01-13T14:04:09.603Z,5.56
2023-01-13T14:07:21.721Z,5.54
2023-01-13T14:10:33.273Z,5.57
2023-01-13T14:13:36.150Z,5.56
2023-01-13T14:16:40.782Z,5.59
2023-01-13T14:19:47.700Z,5.58
2023-01-13T14:22:54.873Z,5.66
2023-01-13T14:26:08.847Z,5.64
2023-01-13T14:29:18.464Z,5.67
2023-01-13T14:32:26.311Z,5.67
2023-01-13T14:35:30.084Z,5.74
2023-01-13T14:38:33.561Z,5.78
2023-01-13T14:41:50.952Z,5.83
2023-01-13T14:44:56.274Z,5.81
2023-01-13T14:48:01.550Z,5.86
2023-01-13T14:51:14.319Z,5.83
2023-01-13T14:54:47.517Z,5.83
2023-01-13T14:57:54.305Z,5.77
2023-01-13T15:01:25.822Z,5.74
2023-01-13T15:04:39.063Z,5.86
2023-01-13T15:07:56.397Z,5.77
2023-01-13T15:11:02.742Z,5.76
2023-01-13T15:14:10.966Z,5.80
2023-01-13T15:17:17.477Z,5.77
2023-01-13T15:20:25.920Z,5.74
2023-01-13T15:23:29.681Z,5.66
2023-01-13T15:26:35.779Z,5.65
2023-01-13T15:29:39.065Z,5.70
2023-01-13T15:32:44.737Z,5.67
2023-01-13T15:35:52.779Z,5.71
2023-01-13T15:38:59.467Z,5.66
2023-01-13T15:42:21.492Z,5.65
2023-01-13T15:45:43.876Z,5.65
2023-01-13T15:48:53.010Z,5.68
2023-01-13T15:51:56.470Z,5.71
2023-01-13T15:54:59.808Z,5.71
2023-01-13T15:58:03.007Z,5.68
2023-01-13T16:01:10.139Z,5.72
2023-01-13T16:04:16.243Z,5.71
2023-01-13T16:07:25.092Z,5.66
2023-01-13T16:10:28.523Z,5.72
2023-01-13T16:13:33.892Z,5.71
2023-01-13T16:16:40.867Z,5.79
2023-01-13T16:19:44.940Z,5.77
2023-01-13T16:22:50.693Z,5.78
2023-01-13T16:25:56.672Z,5.79
2023-01-13T16:28:59.936Z,5.78
2023-01-13T16:32:03.197Z,5.80
2023-01-13T16:35:06.896Z,5.80
2023-01-13T16:38:21.411Z,5.84
2023-01-13T16:41:25.159Z,5.83
2023-01-13T16:44:28.628Z,5.82
2023-01-13T16:47:31.858Z,5.79
2023-01-13T16:50:41.853Z,5.75
2023-01-13T16:53:45.398Z,5.72
2023-01-13T16:56:48.843Z,5.71
2023-01-13T16:59:52.162Z,5.77
2023-01-13T17:03:05.258Z,5.74
2023-01-13T17:06:11.175Z,5.73
2023-01-13T17:09:23.411Z,5.78
2023-01-13T17:12:26.660Z,5.81
2023-01-13T17:15:30.051Z,5.76
2023-01-13T17:18:36.165Z,5.76
2023-01-13T17:21:51.183Z,5.81
2023-01-13T17:24:54.535Z,5.78
2023-01-13T17:28:00.904Z,5.75
2023-01-13T17:31:04.273Z,5.72
2023-01-13T17:34:08.380Z,5.71
2023-01-13T17:37:15.173Z,5.75
2023-01-13T17:40:20.880Z,5.68
2023-01-13T17:43:25.336Z,5.70
2023-01-13T17:46:31.550Z,5.67
2023-01-13T17:49:40.337Z,5.66
2023-01-13T17:52:48.817Z,5.67
2023-01-13T17:55:58.413Z,5.67
2023-01-13T17:59:36.168Z,5.86
2023-01-13T18:02:48.986Z,5.74
2023-01-13T18:05:52.312Z,5.67
2023-01-13T18:08:55.600Z,5.65
2023-01-13T18:12:00.458Z,5.64
2023-01-13T18:15:04.145Z,5.71
2023-01-13T18:18:07.413Z,5.71
2023-01-13T18:21:47.919Z,5.70
2023-01-13T18:25:13.472Z,5.83
2023-01-13T18:28:17.029Z,5.85
2023-01-13T18:31:20.100Z,5.81
2023-01-13T18:34:23.468Z,5.82
2023-01-13T18:37:27.302Z,5.82
2023-01-13T18:40:30.748Z,5.82
2023-01-13T18:44:10.816Z,5.84
2023-01-13T18:47:14.238Z,5.83
2023-01-13T18:50:19.651Z,5.84
2023-01-13T18:53:22.922Z,5.86
2023-01-13T18:56:26.259Z,5.85
2023-01-13T18:59:30.018Z,5.86
2023-01-13T19:02:33.306Z,5.87
2023-01-13T19:05:38.271Z,5.86
2023-01-13T19:08:42.175Z,5.84
2023-01-13T19:11:49.587Z,5.83
2023-01-13T19:14:54.398Z,5.84
2023-01-13T19:17:57.279Z,5.86
2023-01-13T19:21:05.152Z,5.84
2023-01-13T19:24:08.390Z,5.85
2023-01-13T19:27:14.545Z,5.84
2023-01-13T19:30:17.720Z,5.81
2023-01-13T19:33:20.661Z,5.83
2023-01-13T19:36:23.502Z,5.80
2023-01-13T19:39:26.545Z,5.79
2023-01-13T19:42:48.359Z,5.79
2023-01-13T19:45:51.367Z,5.84
2023-01-13T19:48:54.291Z,5.82
2023-01-13T19:51:57.461Z,5.83
2023-01-13T19:55:01.958Z,5.82
2023-01-13T19:58:05.583Z,5.86
2023-01-13T20:01:10.268Z,5.85
2023-01-13T20:04:14.479Z,5.97
2023-01-13T20:07:17.593Z,5.99
2023-01-13T20:10:22.101Z,6.20
2023-01-13T20:13:25.275Z,6.08
2023-01-13T20:16:30.040Z,5.95
2023-01-13T20:19:33.482Z,5.91
2023-01-13T20:22:39.804Z,6.08
2023-01-13T20:25:43.389Z,5.98
2023-01-13T20:28:47.288Z,5.90
2023-01-13T20:31:51.024Z,6.06
2023-01-13T20:34:54.055Z,5.95
2023-01-13T20:37:56.947Z,5.93
2023-01-13T20:41:01.388Z,5.88
2023-01-13T20:44:05.327Z,5.90
2023-01-13T20:47:08.718Z,5.89
2023-01-13T20:50:12.684Z,5.91
2023-01-13T20:53:15.544Z,5.96
2023-01-13T20:56:18.387Z,5.88
2023-01-13T20:59:22.916Z,5.97
2023-01-13T21:02:25.740Z,5.90
2023-01-13T21:05:29.569Z,6.04
2023-01-13T21:08:32.514Z,5.96
2023-01-13T21:11:54.005Z,5.95
2023-01-13T21:15:23.542Z,5.83
2023-01-13T21:18:45.523Z,5.80
2023-01-13T21:21:48.376Z,5.79
2023-01-13T21:24:51.353Z,5.82
2023-01-13T21:27:54.900Z,5.80
2023-01-13T21:31:09.226Z,5.79
2023-01-13T21:34:12.678Z,5.81
2023-01-13T21:37:16.425Z,5.82
2023-01-13T21:40:19.859Z,5.82
2023-01-13T21:43:41.937Z,5.84
2023-01-13T21:47:03.881Z,5.80
2023-01-13T21:50:10.348Z,5.79
2023-01-13T21:53:13.282Z,5.83
2023-01-13T21:56:16.125Z,5.88
2023-01-13T21:59:19.669Z,5.89
2023-01-13T22:02:29.153Z,5.86
2023-01-13T22:05:32.634Z,5.84
2023-01-13T22:08:35.754Z,5.83
2023-01-13T22:11:39.026Z,5.81
2023-01-13T22:14:41.951Z,5.82
2023-01-13T22:17:48.814Z,5.92
2023-01-13T22:20:51.659Z,5.89
2023-01-13T22:23:54.752Z,6.07
2023-01-13T22:26:57.206Z,5.85
2023-01-13T22:30:00.339Z,5.81
2023-01-13T22:33:03.010Z,5.81
2023-01-13T22:36:08.121Z,6.16
2023-01-13T22:39:11.314Z,5.90
2023-01-13T22:42:14.701Z,5.89
2023-01-13T22:45:18.835Z,5.79
2023-01-13T22:48:21.929Z,5.75
2023-01-13T22:51:25.226Z,5.77
2023-01-13T22:54:28.345Z,5.79
2023-01-13T22:57:35.949Z,5.80
2023-01-13T23:00:46.832Z,5.80
2023-01-13T23:03:50.389Z,5.88
2023-01-13T23:06:53.560Z,5.89
2023-01-13T23:09:56.111Z,5.89
2023-01-13T23:12:59.196Z,5.87
2023-01-13T23:16:03.568Z,5.87
2023-01-13T23:19:07.558Z,5.91
2023-01-13T23:22:09.985Z,5.96
2023-01-13T23:25:13.045Z,5.98
2023-01-13T23:28:15.621Z,6.05
2023-01-13T23:31:21.282Z,6.01
2023-01-13T23:34:23.798Z,5.98
2023-01-13T23:37:26.910Z,5.96
2023-01-13T23:40:29.429Z,5.97
2023-01-13T23:43:32.883Z,5.94
2023-01-13T23:46:35.641Z,5.99
2023-01-13T23:49:38.964Z,5.96
2023-01-13T23:52:41.503Z,5.94
2023-01-13T23:55:44.572Z,5.97
2023-01-13T23:58:48.110Z,5.94
